createdAt,value
2018-03-01T00:00:01.374Z,47.90
2018-03-01T00:03:24.692Z,48.20
2018-03-01T00:06:48.068Z,48.40
2018-03-01T00:10:11.379Z,48.70
2018-03-01T00:13:34.804Z,48.30
2018-03-01T00:16:58.173Z,48.80
2018-03-01T00:20:21.467Z,48.80
2018-03-01T00:23:45.505Z,48.30
2018-03-01T00:27:09.566Z,48.70
2018-03-01T00:30:32.948Z,48.60
2018-03-01T00:33:56.999Z,49.60
2018-03-01T00:37:21.040Z,49.10
2018-03-01T00:40:44.355Z,49.10
2018-03-01T00:44:08.405Z,47.90
2018-03-01T00:47:31.717Z,47.90
2018-03-01T00:50:55.069Z,48.40
2018-03-01T00:54:19.157Z,48.00
2018-03-01T00:57:43.195Z,47.90
2018-03-01T01:01:08.276Z,48.70
2018-03-01T01:04:31.705Z,48.70
2018-03-01T01:07:55.044Z,48.40
2018-03-01T01:11:19.168Z,48.40
2018-03-01T01:14:42.490Z,48.30
2018-03-01T01:18:05.767Z,48.60
2018-03-01T01:21:29.837Z,48.00
2018-03-01T01:24:53.129Z,47.90
2018-03-01T01:28:17.251Z,48.60
2018-03-01T01:31:40.567Z,48.60
2018-03-01T01:35:03.847Z,48.60
2018-03-01T01:38:27.895Z,48.50
2018-03-01T01:41:51.937Z,49.00
2018-03-01T01:45:15.213Z,48.90
2018-03-01T01:48:38.513Z,48.70
2018-03-01T01:52:02.561Z,49.20
2018-03-01T01:55:25.893Z,49.20
2018-03-01T01:58:49.191Z,49.30
2018-03-01T02:02:12.503Z,49.60
2018-03-01T02:05:36.552Z,49.80
2018-03-01T02:08:59.821Z,49.70
2018-03-01T02:12:23.125Z,50.00
2018-03-01T02:15:46.438Z,49.70
2018-03-01T02:19:10.491Z,49.50
2018-03-01T02:22:33.770Z,49.40
2018-03-01T02:25:57.075Z,49.00
2018-03-01T02:29:21.128Z,49.70
2018-03-01T02:32:44.508Z,49.70
2018-03-01T02:36:07.817Z,49.60
2018-03-01T02:39:31.172Z,50.70
2018-03-01T02:42:54.449Z,49.20
2018-03-01T02:46:17.744Z,49.10
2018-03-01T02:49:41.804Z,49.90
2018-03-01T02:53:05.147Z,49.90
2018-03-01T02:56:29.213Z,49.50
2018-03-01T02:59:52.548Z,49.30
2018-03-01T03:03:15.916Z,49.60
2018-03-01T03:06:39.290Z,49.80
2018-03-01T03:10:02.655Z,50.10
2018-03-01T03:13:25.965Z,50.20
2018-03-01T03:16:49.267Z,50.60
2018-03-01T03:20:13.310Z,50.70
2018-03-01T03:23:36.651Z,50.70
2018-03-01T03:26:59.950Z,50.60
2018-03-01T03:30:24.005Z,51.20
2018-03-01T03:33:48.143Z,52.30
2018-03-01T03:37:11.512Z,52.30
2018-03-01T03:40:34.884Z,52.90
2018-03-01T03:43:58.253Z,52.40
2018-03-01T03:47:21.539Z,52.90
2018-03-01T03:50:45.666Z,54.80
2018-03-01T03:54:09.805Z,54.80
2018-03-01T03:57:33.934Z,55.30
2018-03-01T04:00:57.228Z,55.30
2018-03-01T04:04:20.567Z,55.90
2018-03-01T04:07:43.859Z,55.20
2018-03-01T04:11:07.929Z,56.90
2018-03-01T04:14:31.236Z,56.90
2018-03-01T04:17:54.556Z,58.20
2018-03-01T04:21:17.862Z,59.00
2018-03-01T04:24:41.934Z,60.10
2018-03-01T04:28:06.028Z,61.60
2018-03-01T04:31:30.110Z,64.70
2018-03-01T04:34:54.233Z,65.40
2018-03-01T04:38:17.543Z,65.40
2018-03-01T04:41:40.824Z,66.80
2018-03-01T04:45:04.110Z,66.60
2018-03-01T04:48:28.173Z,67.00
2018-03-01T04:51:55.446Z,66.90
2018-03-01T04:55:18.804Z,67.60
2018-03-01T04:58:42.178Z,69.20
2018-03-01T05:02:05.551Z,69.10
2018-03-01T05:05:28.868Z,70.10
2018-03-01T05:08:52.143Z,70.80
2018-03-01T05:12:16.252Z,67.40
2018-03-01T05:15:40.361Z,66.90
2018-03-01T05:19:03.668Z,66.70
2018-03-01T05:22:26.993Z,66.90
2018-03-01T05:25:50.287Z,68.20
2018-03-01T05:29:14.357Z,68.90
2018-03-01T05:32:37.658Z,68.90
2018-03-01T05:36:00.995Z,68.90
2018-03-01T05:39:25.131Z,67.80
2018-03-01T05:42:49.495Z,70.00
2018-03-01T05:46:12.897Z,69.90
2018-03-01T05:49:36.267Z,69.70
2018-03-01T05:53:02.243Z,70.00
2018-03-01T05:56:26.386Z,70.70
2018-03-01T05:59:50.524Z,68.90
2018-03-01T06:03:13.894Z,68.90
2018-03-01T06:06:38.081Z,70.20
2018-03-01T06:10:01.406Z,70.00
2018-03-01T06:13:25.539Z,68.30
2018-03-01T06:16:48.982Z,68.20
2018-03-01T06:20:13.179Z,69.30
2018-03-01T06:23:36.572Z,69.20
2018-03-01T06:26:59.924Z,70.40
2018-03-01T06:30:23.398Z,68.90
2018-03-01T06:33:47.467Z,69.60
2018-03-01T06:37:11.556Z,69.60
2018-03-01T06:40:34.936Z,69.50
2018-03-01T06:43:58.309Z,68.60
2018-03-01T06:47:21.552Z,69.60
2018-03-01T06:50:45.719Z,68.70
2018-03-01T06:54:09.099Z,68.50
2018-03-01T06:57:32.466Z,68.60
2018-03-01T07:00:55.750Z,69.60
2018-03-01T07:04:19.113Z,69.20
2018-03-01T07:07:43.208Z,68.90
2018-03-01T07:11:07.345Z,68.40
2018-03-01T07:14:31.481Z,68.00
2018-03-01T07:17:54.850Z,67.80
2018-03-01T07:21:18.119Z,67.50
2018-03-01T07:24:41.484Z,69.10
2018-03-01T07:28:04.856Z,69.00
2018-03-01T07:31:28.188Z,68.80
2018-03-01T07:34:52.314Z,67.80
2018-03-01T07:38:15.588Z,67.60
2018-03-01T07:41:39.719Z,66.60
2018-03-01T07:45:03.024Z,66.60
2018-03-01T07:48:26.406Z,66.60
2018-03-01T07:51:49.743Z,65.40
2018-03-01T07:55:13.787Z,66.40
2018-03-01T07:58:37.872Z,64.70
2018-03-01T08:02:01.993Z,66.90
2018-03-01T08:05:26.057Z,66.90
2018-03-01T08:08:50.098Z,67.40
2018-03-01T08:12:13.377Z,67.30
2018-03-01T08:15:36.659Z,66.80
2018-03-01T08:19:00.785Z,65.10
2018-03-01T08:22:24.089Z,65.10
2018-03-01T08:25:47.472Z,65.10
2018-03-01T08:29:10.778Z,65.20
2018-03-01T08:32:34.067Z,64.10
2018-03-01T08:35:58.136Z,63.60
2018-03-01T08:39:21.451Z,63.40
2018-03-01T08:42:45.492Z,64.60
2018-03-01T08:46:08.799Z,64.60
2018-03-01T08:49:32.937Z,64.50
2018-03-01T08:52:56.216Z,64.50
2018-03-01T08:56:19.487Z,64.90
2018-03-01T08:59:42.777Z,63.70
2018-03-01T09:03:06.907Z,63.80
2018-03-01T09:06:30.275Z,63.80
2018-03-01T09:09:53.616Z,63.90
2018-03-01T09:13:17.654Z,63.90
2018-03-01T09:16:40.953Z,63.90
2018-03-01T09:20:05.083Z,64.30
2018-03-01T09:23:28.359Z,63.50
2018-03-01T09:26:52.400Z,64.50
2018-03-01T09:30:16.443Z,63.30
2018-03-01T09:33:39.777Z,63.30
2018-03-01T09:37:03.111Z,62.30
2018-03-01T09:40:26.399Z,62.10
2018-03-01T09:43:50.435Z,65.20
2018-03-01T09:47:14.491Z,63.60
2018-03-01T09:50:37.791Z,63.60
2018-03-01T09:54:01.924Z,65.70
2018-03-01T09:57:26.059Z,64.10
2018-03-01T10:00:50.204Z,65.10
2018-03-01T10:04:14.880Z,63.90
2018-03-01T10:07:38.978Z,65.60
2018-03-01T10:11:03.062Z,66.20
2018-03-01T10:14:26.431Z,66.20
2018-03-01T10:17:49.721Z,65.60
2018-03-01T10:21:13.756Z,67.20
2018-03-01T10:24:37.106Z,67.10
2018-03-01T10:28:00.403Z,65.50
2018-03-01T10:31:23.750Z,65.30
2018-03-01T10:34:47.893Z,65.80
2018-03-01T10:38:12.025Z,66.10
2018-03-01T10:41:35.306Z,66.00
2018-03-01T10:44:59.427Z,65.30
2018-03-01T10:48:22.703Z,65.20
2018-03-01T10:51:46.795Z,64.30
2018-03-01T10:55:10.922Z,64.60
2018-03-01T10:58:34.288Z,64.50
2018-03-01T11:01:59.866Z,64.80
2018-03-01T11:05:24.005Z,63.90
2018-03-01T11:08:48.083Z,62.60
2018-03-01T11:12:12.122Z,62.50
2018-03-01T11:15:35.399Z,63.20
2018-03-01T11:18:59.446Z,60.90
2018-03-01T11:22:23.566Z,59.90
2018-03-01T11:25:47.014Z,59.90
2018-03-01T11:29:10.377Z,61.10
2018-03-01T11:32:33.778Z,60.90
2018-03-01T11:35:57.915Z,63.10
2018-03-01T11:39:21.285Z,63.10
2018-03-01T11:42:44.571Z,59.50
2018-03-01T11:46:08.689Z,60.10
2018-03-01T11:49:31.953Z,60.10
2018-03-01T11:52:55.333Z,59.30
2018-03-01T11:56:18.623Z,58.80
2018-03-01T11:59:41.962Z,58.90
2018-03-01T12:03:05.351Z,58.70
2018-03-01T12:06:29.475Z,59.40
2018-03-01T12:09:52.750Z,59.30
2018-03-01T12:13:16.025Z,60.30
2018-03-01T12:16:40.151Z,59.80
2018-03-01T12:20:03.777Z,59.70
2018-03-01T12:23:27.199Z,61.10
2018-03-01T12:26:50.465Z,62.90
2018-03-01T12:30:13.782Z,61.00
2018-03-01T12:33:37.055Z,62.30
2018-03-01T12:37:01.251Z,61.80
2018-03-01T12:40:25.366Z,61.30
2018-03-01T12:43:48.701Z,61.30
2018-03-01T12:47:12.072Z,61.60
2018-03-01T12:50:35.441Z,60.40
2018-03-01T12:53:58.749Z,61.40
2018-03-01T12:57:22.143Z,59.70
2018-03-01T13:00:46.265Z,60.00
2018-03-01T13:04:10.414Z,60.00
2018-03-01T13:07:34.499Z,59.20
2018-03-01T13:10:58.618Z,59.00
2018-03-01T13:14:22.046Z,59.00
2018-03-01T13:17:45.378Z,56.60
2018-03-01T13:21:09.449Z,57.70
2018-03-01T13:24:32.877Z,57.70
2018-03-01T13:27:56.197Z,57.30
2018-03-01T13:31:19.497Z,56.90
2018-03-01T13:34:47.217Z,57.10
2018-03-01T13:38:10.606Z,58.00
2018-03-01T13:41:33.877Z,57.40
2018-03-01T13:44:57.231Z,59.10
2018-03-01T13:48:20.509Z,60.00
2018-03-01T13:51:43.790Z,59.70
2018-03-01T13:55:07.920Z,58.40
2018-03-01T13:58:31.249Z,58.40
2018-03-01T14:01:55.332Z,58.80
2018-03-01T14:05:19.467Z,58.70
2018-03-01T14:08:42.731Z,58.60
2018-03-01T14:16:02.355Z,58.90
2018-03-01T14:19:28.225Z,59.70
2018-03-01T14:22:52.295Z,59.30
2018-03-01T14:26:18.614Z,59.20
2018-03-01T14:30:02.629Z,59.10
2018-03-01T14:33:26.761Z,59.10
2018-03-01T14:36:50.826Z,59.10
2018-03-01T14:40:14.121Z,59.60
2018-03-01T14:43:38.351Z,60.00
2018-03-01T14:47:03.501Z,59.40
2018-03-01T14:50:26.784Z,59.30
2018-03-01T14:53:50.816Z,59.20
2018-03-01T14:57:14.915Z,58.60
2018-03-01T15:00:38.205Z,58.50
2018-03-01T15:04:01.540Z,57.90
2018-03-01T15:07:25.580Z,58.80
2018-03-01T15:10:49.638Z,58.20
2018-03-01T15:14:17.001Z,58.20
2018-03-01T15:17:40.320Z,58.20
2018-03-01T15:21:03.891Z,57.40
2018-03-01T15:24:28.074Z,57.40
2018-03-01T15:27:51.468Z,57.30
2018-03-01T15:31:14.767Z,58.30
2018-03-01T15:34:38.999Z,59.60
2018-03-01T15:38:02.357Z,59.80
2018-03-01T15:41:26.451Z,59.70
2018-03-01T15:44:49.825Z,59.70
2018-03-01T15:48:13.873Z,60.50
2018-03-01T15:51:38.051Z,60.40
2018-03-01T15:55:02.163Z,60.70
2018-03-01T15:58:26.526Z,60.60
2018-03-01T16:01:50.601Z,60.50
2018-03-01T16:05:14.020Z,60.50
2018-03-01T16:08:37.347Z,61.00
2018-03-01T16:12:01.453Z,60.00
2018-03-01T16:15:24.804Z,60.00
2018-03-01T16:26:48.983Z,60.00
2018-03-01T16:30:16.081Z,59.90
2018-03-01T16:33:39.611Z,58.50
2018-03-01T16:37:02.927Z,59.60
2018-03-01T16:40:26.288Z,60.10
2018-03-01T16:43:49.777Z,60.10
2018-03-01T16:47:13.313Z,59.60
2018-03-01T16:50:36.650Z,59.60
2018-03-01T16:54:00.798Z,59.80
2018-03-01T16:57:24.053Z,59.80
2018-03-01T17:00:48.117Z,59.90
2018-03-01T17:04:11.409Z,59.80
2018-03-01T17:07:35.441Z,60.70
2018-03-01T17:10:59.665Z,60.20
2018-03-01T17:14:22.931Z,60.00
2018-03-01T17:17:46.257Z,59.60
2018-03-01T17:21:09.543Z,59.80
2018-03-01T17:24:33.597Z,59.70
2018-03-01T17:27:56.919Z,59.60
2018-03-01T17:31:20.178Z,59.90
2018-03-01T17:34:43.480Z,59.30
2018-03-01T17:38:07.583Z,61.10
2018-03-01T17:41:30.875Z,61.00
2018-03-01T17:44:54.235Z,59.80
2018-03-01T17:48:17.514Z,59.20
2018-03-01T17:51:41.590Z,59.10
2018-03-01T17:55:04.858Z,59.00
2018-03-01T17:58:28.149Z,59.80
2018-03-01T18:01:51.899Z,59.70
2018-03-01T18:05:15.230Z,59.20
2018-03-01T18:08:38.520Z,58.80
2018-03-01T18:12:02.667Z,59.40
2018-03-01T18:15:28.047Z,58.90
2018-03-01T18:18:52.302Z,59.00
2018-03-01T18:22:15.662Z,59.00
2018-03-01T18:25:39.820Z,58.50
2018-03-01T18:29:04.724Z,57.90
2018-03-01T18:32:28.077Z,57.80
2018-03-01T18:35:51.479Z,58.20
2018-03-01T18:39:14.907Z,59.60
2018-03-01T18:42:38.412Z,59.50
2018-03-01T18:46:02.526Z,59.10
2018-03-01T18:49:25.883Z,59.00
2018-03-01T18:52:50.002Z,59.30
2018-03-01T18:56:13.392Z,59.40
2018-03-01T18:59:36.743Z,59.60
2018-03-01T19:03:03.388Z,58.80
2018-03-01T19:06:29.442Z,59.20
2018-03-01T19:09:52.954Z,59.20
2018-03-01T19:13:17.253Z,59.00
2018-03-01T19:16:41.732Z,59.00
2018-03-01T19:20:05.835Z,59.70
2018-03-01T19:23:29.138Z,59.60
2018-03-01T19:26:53.512Z,59.60
2018-03-01T19:30:17.004Z,59.60
2018-03-01T19:33:41.210Z,59.90
2018-03-01T19:37:04.645Z,59.90
2018-03-01T19:40:28.058Z,60.70
2018-03-01T19:43:51.352Z,59.90
2018-03-01T19:47:15.457Z,59.80
2018-03-01T19:50:39.512Z,59.60
2018-03-01T19:54:02.829Z,59.50
2018-03-01T19:57:26.142Z,59.50
2018-03-01T20:00:49.442Z,59.60
2018-03-01T20:04:13.483Z,60.50
2018-03-01T20:07:37.714Z,60.50
2018-03-01T20:11:01.775Z,60.70
2018-03-01T20:14:25.099Z,60.70
2018-03-01T20:17:48.423Z,60.00
2018-03-01T20:21:11.851Z,60.60
2018-03-01T20:24:36.043Z,60.00
2018-03-01T20:27:59.342Z,60.30
2018-03-01T20:31:22.725Z,61.00
2018-03-01T20:34:46.099Z,61.10
2018-03-01T20:38:09.416Z,60.00
2018-03-01T20:41:32.749Z,60.20
2018-03-01T20:44:56.931Z,59.50
2018-03-01T20:48:20.224Z,59.50
2018-03-01T20:51:43.501Z,60.60
2018-03-01T20:55:06.884Z,60.20
2018-03-01T20:58:30.314Z,59.60
2018-03-01T21:01:53.684Z,59.70
2018-03-01T21:05:17.749Z,59.60
2018-03-01T21:08:41.146Z,59.40
2018-03-01T21:12:06.194Z,60.20
2018-03-01T21:15:29.535Z,60.10
2018-03-01T21:18:53.643Z,60.40
2018-03-01T21:22:16.971Z,60.30
2018-03-01T21:25:40.343Z,59.60
2018-03-01T21:29:03.720Z,59.60
2018-03-01T21:32:27.807Z,59.60
2018-03-01T21:35:52.026Z,59.90
2018-03-01T21:39:15.812Z,59.80
2018-03-01T21:42:39.169Z,59.00
2018-03-01T21:46:02.451Z,59.00
2018-03-01T21:49:25.825Z,59.00
2018-03-01T21:52:49.232Z,59.00
2018-03-01T21:56:12.527Z,58.80
2018-03-01T21:59:36.609Z,58.20
2018-03-01T22:03:00.816Z,58.40
2018-03-01T22:06:24.171Z,58.30
2018-03-01T22:09:48.271Z,58.10
2018-03-01T22:13:12.804Z,58.10
2018-03-01T22:16:39.562Z,58.50
2018-03-01T22:20:03.629Z,58.80
2018-03-01T22:23:27.005Z,58.70
2018-03-01T22:26:50.373Z,58.70
2018-03-01T22:30:13.834Z,58.50
2018-03-01T22:33:38.242Z,58.70
2018-03-01T22:37:01.612Z,58.70
2018-03-01T22:40:25.813Z,58.70
2018-03-01T22:43:50.034Z,58.90
2018-03-01T22:47:13.616Z,58.80
2018-03-01T22:50:36.989Z,58.80
2018-03-01T22:54:00.294Z,58.70
2018-03-01T22:57:23.777Z,59.80
2018-03-01T23:00:57.803Z,58.80
2018-03-01T23:04:21.935Z,58.40
2018-03-01T23:07:45.319Z,58.90
2018-03-01T23:11:09.407Z,58.50
2018-03-01T23:14:33.554Z,58.00
2018-03-01T23:17:57.723Z,58.50
2018-03-01T23:21:21.097Z,58.40
2018-03-01T23:24:44.376Z,58.80
2018-03-01T23:28:08.651Z,58.40
2018-03-01T23:31:32.726Z,58.20
2018-03-01T23:34:56.503Z,58.20
2018-03-01T23:38:20.136Z,58.00
2018-03-01T23:41:43.723Z,58.20
2018-03-01T23:45:07.294Z,57.70
2018-03-01T23:48:30.799Z,57.60
2018-03-01T23:51:54.564Z,57.90
2018-03-01T23:55:19.248Z,58.20
2018-03-01T23:58:42.956Z,58.30
